createdAt,value
2023-05-01T00:00:18.386Z,98391.75
2023-05-01T00:01:19.982Z,98388.28
2023-05-01T00:02:21.818Z,98381.50
2023-05-01T00:03:23.532Z,98375.50
2023-05-01T00:04:25.211Z,98381.78
2023-05-01T00:05:27.596Z,98376.34
2023-05-01T00:06:29.232Z,98388.28
2023-05-01T00:07:31.231Z,98378.56
2023-05-01T00:08:32.887Z,98389.34
2023-05-01T00:09:34.445Z,98371.22
2023-05-01T00:10:36.761Z,98382.97
2023-05-01T00:11:42.739Z,98364.81
2023-05-01T00:12:51.151Z,98376.41
2023-05-01T00:13:54.535Z,98379.84
2023-05-01T00:14:56.050Z,98369.50
2023-05-01T00:16:06.955Z,98376.44
2023-05-01T00:17:08.541Z,98372.78
2023-05-01T00:18:10.100Z,98369.50
2023-05-01T00:19:12.677Z,98366.44
2023-05-01T00:20:14.376Z,98364.97
2023-05-01T00:21:16.207Z,98371.09
2023-05-01T00:22:17.740Z,98370.03
2023-05-01T00:23:19.263Z,98368.41
2023-05-01T00:24:20.843Z,98368.28
2023-05-01T00:25:22.376Z,98363.44
2023-05-01T00:26:27.160Z,98363.22
2023-05-01T00:27:28.690Z,98369.59
2023-05-01T00:28:30.193Z,98357.78
2023-05-01T00:29:31.756Z,98354.59
2023-05-01T00:30:34.042Z,98346.81
2023-05-01T00:31:36.242Z,98348.91
2023-05-01T00:32:38.779Z,98348.81
2023-05-01T00:33:40.645Z,98349.78
2023-05-01T00:34:42.238Z,98356.72
2023-05-01T00:35:45.119Z,98346.31
2023-05-01T00:36:48.096Z,98347.25
2023-05-01T00:37:51.214Z,98345.53
2023-05-01T00:38:52.740Z,98344.84
2023-05-01T00:39:54.529Z,98344.91
2023-05-01T00:40:56.434Z,98342.59
2023-05-01T00:41:58.091Z,98337.47
2023-05-01T00:42:59.678Z,98346.34
2023-05-01T00:44:01.349Z,98336.88
2023-05-01T00:45:03.956Z,98343.41
2023-05-01T00:46:06.313Z,98327.84
2023-05-01T00:47:07.864Z,98333.59
2023-05-01T00:48:09.619Z,98339.34
2023-05-01T00:49:11.272Z,98337.00
2023-05-01T00:50:12.880Z,98330.75
2023-05-01T00:51:15.230Z,98329.56
2023-05-01T00:52:16.781Z,98337.13
2023-05-01T00:53:18.963Z,98329.44
2023-05-01T00:54:21.403Z,98327.72
2023-05-01T00:55:23.032Z,98336.09
2023-05-01T00:56:26.729Z,98335.25
2023-05-01T00:57:28.278Z,98331.84
2023-05-01T00:58:29.843Z,98326.66
2023-05-01T00:59:31.487Z,98327.41
2023-05-01T01:00:33.045Z,98324.56
2023-05-01T01:01:34.845Z,98322.91
2023-05-01T01:02:36.971Z,98321.44
2023-05-01T01:03:38.594Z,98323.13
2023-05-01T01:04:44.826Z,98321.69
2023-05-01T01:05:50.883Z,98318.88
2023-05-01T01:07:12.772Z,98319.66
2023-05-01T01:08:23.144Z,98316.00
2023-05-01T01:09:36.950Z,98316.88
2023-05-01T01:11:02.196Z,98321.59
2023-05-01T01:12:09.662Z,98316.59
2023-05-01T01:13:19.236Z,98314.66
2023-05-01T01:14:27.553Z,98313.91
2023-05-01T01:15:47.735Z,98313.00
2023-05-01T01:16:59.590Z,98306.00
2023-05-01T01:18:06.734Z,98306.72
2023-05-01T01:19:20.705Z,98304.47
2023-05-01T01:20:41.782Z,98313.34
2023-05-01T01:21:43.415Z,98308.63
2023-05-01T01:22:47.656Z,98285.59
2023-05-01T01:24:25.954Z,98307.56
2023-05-01T01:25:30.441Z,98309.16
2023-05-01T01:26:57.038Z,98310.63
2023-05-01T01:28:23.554Z,98309.56
2023-05-01T01:29:55.715Z,98296.91
2023-05-01T01:31:07.800Z,98284.66
2023-05-01T01:32:31.659Z,98295.84
2023-05-01T01:33:44.034Z,98309.31
2023-05-01T01:34:50.627Z,98301.50
2023-05-01T01:35:58.061Z,98292.53
2023-05-01T01:37:05.146Z,98295.75
2023-05-01T01:38:30.381Z,98300.81
2023-05-01T01:39:51.092Z,98296.66
2023-05-01T01:41:22.834Z,98279.41
2023-05-01T01:42:34.882Z,98270.13
2023-05-01T01:43:39.457Z,98295.47
2023-05-01T01:44:43.065Z,98300.19
2023-05-01T01:45:47.529Z,98282.69
2023-05-01T01:46:50.380Z,98292.78
2023-05-01T01:47:52.125Z,98286.66
2023-05-01T01:48:53.733Z,98292.44
2023-05-01T01:49:55.970Z,98277.69
2023-05-01T01:50:58.772Z,98291.47
2023-05-01T01:52:02.037Z,98282.97
2023-05-01T01:53:03.785Z,98289.94
2023-05-01T01:54:05.414Z,98284.59
2023-05-01T01:55:11.374Z,98294.69
2023-05-01T01:56:12.880Z,98269.72
2023-05-01T01:57:14.867Z,98284.97
2023-05-01T01:58:16.942Z,98280.16
2023-05-01T01:59:18.964Z,98279.09
2023-05-01T02:00:20.757Z,98273.91
2023-05-01T02:01:22.778Z,98282.84
2023-05-01T02:02:24.471Z,98270.53
2023-05-01T02:03:26.820Z,98269.72
2023-05-01T02:04:28.735Z,98277.44
2023-05-01T02:05:30.382Z,98267.56
2023-05-01T02:06:32.488Z,98282.34
2023-05-01T02:07:34.684Z,98262.47
2023-05-01T02:08:36.364Z,98276.47
2023-05-01T02:09:37.922Z,98269.03
2023-05-01T02:10:40.453Z,98264.53
2023-05-01T02:11:42.345Z,98267.75
2023-05-01T02:12:47.147Z,98271.44
2023-05-01T02:13:49.427Z,98268.16
2023-05-01T02:14:51.531Z,98268.56
2023-05-01T02:15:53.286Z,98271.72
2023-05-01T02:16:55.889Z,98267.06
2023-05-01T02:17:57.466Z,98267.84
2023-05-01T02:18:59.095Z,98268.63
2023-05-01T02:20:00.785Z,98263.34
2023-05-01T02:21:02.305Z,98260.69
2023-05-01T02:22:04.237Z,98252.78
2023-05-01T02:23:05.862Z,98259.94
2023-05-01T02:24:07.447Z,98244.56
2023-05-01T02:25:10.093Z,98261.25
2023-05-01T02:26:13.687Z,98243.34
2023-05-01T02:27:24.310Z,98248.34
2023-05-01T02:28:27.185Z,98258.97
2023-05-01T02:29:28.755Z,98260.84
2023-05-01T02:30:30.385Z,98236.19
2023-05-01T02:31:31.952Z,98250.91
2023-05-01T02:32:33.926Z,98243.84
2023-05-01T02:33:35.611Z,98251.97
2023-05-01T02:34:37.357Z,98250.63
2023-05-01T02:35:40.943Z,98247.53
2023-05-01T02:36:42.783Z,98241.84
2023-05-01T02:37:45.077Z,98243.25
2023-05-01T02:38:47.387Z,98230.63
2023-05-01T02:39:49.064Z,98241.31
2023-05-01T02:40:52.559Z,98228.63
2023-05-01T02:41:55.819Z,98246.50
2023-05-01T02:42:57.413Z,98244.31
2023-05-01T02:44:01.816Z,98241.13
2023-05-01T02:45:04.913Z,98255.38
2023-05-01T02:46:06.618Z,98249.75
2023-05-01T02:47:08.855Z,98239.38
2023-05-01T02:48:11.369Z,98231.56
2023-05-01T02:49:12.970Z,98250.06
2023-05-01T02:50:15.192Z,98239.81
2023-05-01T02:51:16.794Z,98244.25
2023-05-01T02:52:19.069Z,98247.69
2023-05-01T02:53:20.644Z,98243.28
2023-05-01T02:54:22.518Z,98231.16
2023-05-01T02:55:24.182Z,98241.28
2023-05-01T02:56:28.007Z,98249.56
2023-05-01T02:57:30.164Z,98246.38
2023-05-01T02:58:34.320Z,98240.50
2023-05-01T02:59:36.017Z,98247.34
2023-05-01T03:00:38.181Z,98242.44
2023-05-01T03:01:40.095Z,98238.84
2023-05-01T03:02:42.680Z,98244.97
2023-05-01T03:03:44.471Z,98246.56
2023-05-01T03:04:46.060Z,98238.31
2023-05-01T03:05:48.039Z,98243.56
2023-05-01T03:06:49.898Z,98254.41
2023-05-01T03:07:51.764Z,98239.66
2023-05-01T03:08:53.370Z,98246.22
2023-05-01T03:09:55.081Z,98232.34
2023-05-01T03:10:56.897Z,98243.19
2023-05-01T03:11:58.468Z,98234.50
2023-05-01T03:13:00.639Z,98240.34
2023-05-01T03:14:02.371Z,98245.16
2023-05-01T03:15:04.286Z,98232.63
2023-05-01T03:16:06.058Z,98240.50
2023-05-01T03:17:08.112Z,98250.16
2023-05-01T03:18:10.113Z,98228.41
2023-05-01T03:19:11.719Z,98239.47
2023-05-01T03:20:13.317Z,98242.69
2023-05-01T03:21:15.019Z,98244.19
2023-05-01T03:22:16.753Z,98241.75
2023-05-01T03:23:18.313Z,98244.38
2023-05-01T03:24:19.875Z,98246.56
2023-05-01T03:25:21.434Z,98248.34
2023-05-01T03:26:23.080Z,98235.28
2023-05-01T03:27:24.672Z,98244.31
2023-05-01T03:28:26.203Z,98247.13
2023-05-01T03:29:27.760Z,98238.75
2023-05-01T03:30:29.460Z,98231.56
2023-05-01T03:31:31.154Z,98232.09
2023-05-01T03:32:32.804Z,98228.09
2023-05-01T03:33:34.450Z,98237.38
2023-05-01T03:34:36.040Z,98220.56
2023-05-01T03:35:38.212Z,98232.13
2023-05-01T03:36:39.804Z,98236.78
2023-05-01T03:37:41.596Z,98226.69
2023-05-01T03:38:43.138Z,98219.84
2023-05-01T03:39:44.783Z,98235.38
2023-05-01T03:40:46.314Z,98224.91
2023-05-01T03:41:48.029Z,98233.56
2023-05-01T03:42:49.933Z,98216.03
2023-05-01T03:43:52.170Z,98212.16
2023-05-01T03:44:53.716Z,98223.91
2023-05-01T03:45:55.450Z,98226.31
2023-05-01T03:46:57.108Z,98221.38
2023-05-01T03:47:59.218Z,98210.91
2023-05-01T03:49:00.810Z,98221.34
2023-05-01T03:50:02.535Z,98209.22
2023-05-01T03:51:04.442Z,98226.53
2023-05-01T03:52:06.367Z,98218.72
2023-05-01T03:53:07.969Z,98219.13
2023-05-01T03:54:09.476Z,98217.56
2023-05-01T03:55:10.993Z,98223.66
2023-05-01T03:56:12.576Z,98224.22
2023-05-01T03:57:14.730Z,98215.44
2023-05-01T03:58:16.731Z,98213.53
2023-05-01T03:59:18.337Z,98211.81
2023-05-01T04:00:20.003Z,98210.06
2023-05-01T04:01:21.752Z,98219.69
2023-05-01T04:02:23.412Z,98215.00
2023-05-01T04:03:25.460Z,98215.00
2023-05-01T04:04:27.103Z,98214.59
2023-05-01T04:05:28.862Z,98209.41
2023-05-01T04:06:30.507Z,98216.59
2023-05-01T04:07:32.069Z,98217.91
2023-05-01T04:08:33.667Z,98211.94
2023-05-01T04:09:35.297Z,98209.91
2023-05-01T04:10:36.956Z,98203.34
2023-05-01T04:11:38.584Z,98186.09
2023-05-01T04:12:40.662Z,98211.28
2023-05-01T04:13:42.318Z,98199.22
2023-05-01T04:14:44.522Z,98210.22
2023-05-01T04:15:49.082Z,98216.16
2023-05-01T04:16:51.421Z,98206.03
2023-05-01T04:17:54.257Z,98212.72
2023-05-01T04:18:55.849Z,98207.63
2023-05-01T04:19:57.838Z,98212.22
2023-05-01T04:20:59.583Z,98204.44
2023-05-01T04:22:01.583Z,98206.00
2023-05-01T04:23:03.272Z,98207.34
2023-05-01T04:24:05.094Z,98201.44
2023-05-01T04:25:07.681Z,98180.47
2023-05-01T04:26:09.895Z,98202.16
2023-05-01T04:27:11.419Z,98213.97
2023-05-01T04:28:13.778Z,98204.22
2023-05-01T04:29:15.344Z,98190.00
2023-05-01T04:30:16.974Z,98209.47
2023-05-01T04:31:18.830Z,98144.06
2023-05-01T04:32:20.407Z,98201.16
2023-05-01T04:33:22.689Z,98162.72
2023-05-01T04:34:24.437Z,98198.56
2023-05-01T04:35:26.025Z,98187.19
2023-05-01T04:36:27.573Z,98198.16
2023-05-01T04:37:29.319Z,98204.19
2023-05-01T04:38:31.634Z,98207.53
2023-05-01T04:39:33.426Z,98206.56
2023-05-01T04:40:35.097Z,98205.19
2023-05-01T04:41:36.672Z,98202.47
2023-05-01T04:42:38.754Z,98196.38
2023-05-01T04:43:40.327Z,98193.34
2023-05-01T04:44:42.094Z,98208.88
2023-05-01T04:45:43.724Z,98197.91
2023-05-01T04:46:45.618Z,98198.81
2023-05-01T04:47:47.253Z,98204.13
2023-05-01T04:48:48.881Z,98202.75
2023-05-01T04:49:50.698Z,98208.31
2023-05-01T04:50:52.243Z,98201.06
2023-05-01T04:51:54.094Z,98215.00
2023-05-01T04:52:55.644Z,98206.53
2023-05-01T04:53:57.532Z,98214.09
2023-05-01T04:54:59.158Z,98210.94
2023-05-01T04:56:00.774Z,98193.78
2023-05-01T04:57:03.348Z,98208.69
2023-05-01T04:58:05.325Z,98215.97
2023-05-01T04:59:07.054Z,98205.56
2023-05-01T05:00:08.958Z,98209.91
2023-05-01T05:01:10.914Z,98211.50
2023-05-01T05:02:12.534Z,98218.09
2023-05-01T05:03:14.182Z,98195.84
2023-05-01T05:04:16.149Z,98212.13
2023-05-01T05:05:17.728Z,98201.69
2023-05-01T05:06:19.387Z,98208.91
2023-05-01T05:07:21.235Z,98204.63
2023-05-01T05:08:22.800Z,98200.53
2023-05-01T05:09:24.694Z,98207.84
2023-05-01T05:10:26.356Z,98211.00
2023-05-01T05:11:27.939Z,98215.09
2023-05-01T05:12:29.496Z,98205.75
2023-05-01T05:13:31.179Z,98217.00
2023-05-01T05:14:32.703Z,98212.78
2023-05-01T05:15:34.254Z,98201.72
2023-05-01T05:16:35.911Z,98219.53
2023-05-01T05:17:37.539Z,98207.03
2023-05-01T05:18:39.135Z,98190.19
2023-05-01T05:19:40.939Z,98210.81
2023-05-01T05:20:42.568Z,98181.75
2023-05-01T05:21:44.194Z,98201.84
2023-05-01T05:22:45.800Z,98203.22
2023-05-01T05:23:47.431Z,98206.31
2023-05-01T05:24:54.284Z,98191.34
2023-05-01T05:25:56.114Z,98201.59
2023-05-01T05:26:58.090Z,98200.25
2023-05-01T05:28:00.519Z,98208.75
2023-05-01T05:29:02.312Z,98206.78
2023-05-01T05:30:07.630Z,98190.84
2023-05-01T05:31:09.198Z,98199.59
2023-05-01T05:32:11.701Z,98190.09
2023-05-01T05:33:13.522Z,98195.75
2023-05-01T05:34:15.123Z,98199.56
2023-05-01T05:35:16.945Z,98201.72
2023-05-01T05:36:18.740Z,98184.06
2023-05-01T05:37:20.292Z,98197.88
2023-05-01T05:38:21.893Z,98182.72
2023-05-01T05:39:23.858Z,98196.78
2023-05-01T05:40:25.507Z,98204.22
2023-05-01T05:41:27.237Z,98207.03
2023-05-01T05:42:29.344Z,98214.75
2023-05-01T05:43:31.024Z,98179.50
2023-05-01T05:44:36.238Z,98211.22
2023-05-01T05:45:40.191Z,98207.84
2023-05-01T05:46:41.872Z,98190.78
2023-05-01T05:47:43.555Z,98198.09
2023-05-01T05:48:45.325Z,98194.22
2023-05-01T05:49:47.294Z,98209.81
2023-05-01T05:50:51.074Z,98189.69
2023-05-01T05:51:52.715Z,98195.97
2023-05-01T05:52:54.293Z,98195.72
2023-05-01T05:53:56.240Z,98195.59
2023-05-01T05:54:58.170Z,98187.13
2023-05-01T05:55:59.824Z,98192.94
2023-05-01T05:57:02.696Z,98195.38
2023-05-01T05:58:04.312Z,98193.41
2023-05-01T05:59:06.747Z,98184.19
2023-05-01T06:00:10.572Z,98179.09
2023-05-01T06:01:12.239Z,98186.63
2023-05-01T06:02:13.924Z,98186.47
2023-05-01T06:03:16.461Z,98187.25
2023-05-01T06:04:18.164Z,98186.34
2023-05-01T06:05:19.957Z,98186.28
2023-05-01T06:06:21.638Z,98175.56
2023-05-01T06:07:23.956Z,98119.00
2023-05-01T06:08:25.779Z,98185.13
2023-05-01T06:09:28.042Z,98171.63
2023-05-01T06:10:29.699Z,98181.56
2023-05-01T06:11:31.233Z,98185.38
2023-05-01T06:12:34.083Z,98175.31
2023-05-01T06:13:38.141Z,98175.41
2023-05-01T06:14:41.488Z,98164.28
2023-05-01T06:15:43.719Z,98172.03
2023-05-01T06:16:45.316Z,98158.50
2023-05-01T06:17:46.901Z,98164.72
2023-05-01T06:18:48.591Z,98157.66
2023-05-01T06:19:52.476Z,98159.59
2023-05-01T06:20:54.456Z,98159.59
2023-05-01T06:21:55.987Z,98172.94
2023-05-01T06:22:57.659Z,98170.53
2023-05-01T06:23:59.180Z,98178.22
2023-05-01T06:25:00.852Z,98169.50
2023-05-01T06:26:02.392Z,98161.81
2023-05-01T06:27:04.206Z,98153.97
2023-05-01T06:28:05.830Z,98155.38
2023-05-01T06:29:07.337Z,98166.88
2023-05-01T06:30:09.806Z,98165.78
2023-05-01T06:31:11.376Z,98166.13
2023-05-01T06:32:12.956Z,98171.00
2023-05-01T06:33:14.580Z,98172.69
2023-05-01T06:34:16.530Z,98173.63
2023-05-01T06:35:18.251Z,98171.50
2023-05-01T06:36:20.036Z,98167.69
2023-05-01T06:37:21.600Z,98141.78
2023-05-01T06:38:25.022Z,98149.19
2023-05-01T06:39:28.785Z,98164.16
2023-05-01T06:40:31.706Z,98168.50
2023-05-01T06:41:34.339Z,98167.88
2023-05-01T06:42:39.109Z,98167.31
2023-05-01T06:43:40.721Z,98169.75
2023-05-01T06:44:42.928Z,98156.31
2023-05-01T06:45:44.523Z,98163.44
2023-05-01T06:46:46.440Z,98129.63
2023-05-01T06:47:48.090Z,98141.44
2023-05-01T06:48:49.652Z,98151.28
2023-05-01T06:49:51.502Z,98154.59
2023-05-01T06:50:53.337Z,98153.50
2023-05-01T06:51:54.864Z,98151.63
2023-05-01T06:52:56.465Z,98149.50
2023-05-01T06:53:58.012Z,98150.28
2023-05-01T06:54:59.825Z,98152.22
2023-05-01T06:56:01.443Z,98145.94
2023-05-01T06:57:02.948Z,98144.00
2023-05-01T06:58:15.985Z,98151.38
2023-05-01T06:59:25.228Z,98142.38
2023-05-01T07:00:26.716Z,98147.88
2023-05-01T07:01:30.151Z,98094.44
2023-05-01T07:02:33.019Z,98146.75
2023-05-01T07:03:34.730Z,98151.88
2023-05-01T07:04:36.555Z,98149.72
2023-05-01T07:05:38.155Z,98148.56
2023-05-01T07:06:39.991Z,98145.91
2023-05-01T07:07:47.297Z,98146.72
2023-05-01T07:08:52.621Z,98155.72
2023-05-01T07:09:55.010Z,98144.97
2023-05-01T07:10:56.899Z,98151.81
2023-05-01T07:11:58.733Z,98159.50
2023-05-01T07:13:00.256Z,98152.41
2023-05-01T07:14:02.180Z,98142.84
2023-05-01T07:15:04.299Z,98159.19
2023-05-01T07:16:07.170Z,98160.84
2023-05-01T07:17:09.262Z,98161.47
2023-05-01T07:18:12.607Z,98148.66
2023-05-01T07:19:14.364Z,98164.19
2023-05-01T07:20:17.053Z,98062.78
2023-05-01T07:21:18.930Z,98123.84
2023-05-01T07:22:20.587Z,98152.19
2023-05-01T07:23:23.755Z,98135.31
2023-05-01T07:24:25.461Z,98153.28
2023-05-01T07:25:27.036Z,98142.94
2023-05-01T07:26:28.550Z,98131.50
2023-05-01T07:27:30.056Z,98136.63
2023-05-01T07:28:31.728Z,98141.22
2023-05-01T07:29:33.313Z,98133.66
2023-05-01T07:30:36.252Z,98141.59
2023-05-01T07:31:39.187Z,98137.84
2023-05-01T07:32:41.061Z,98124.53
2023-05-01T07:33:42.833Z,98129.94
2023-05-01T07:34:44.569Z,98122.56
2023-05-01T07:35:46.573Z,98125.25
2023-05-01T07:36:48.208Z,98129.91
2023-05-01T07:37:51.962Z,98116.28
2023-05-01T07:38:53.555Z,98133.84
2023-05-01T07:39:55.751Z,98118.47
2023-05-01T07:40:57.669Z,98130.44
2023-05-01T07:41:59.288Z,98108.34
2023-05-01T07:43:01.682Z,98120.94
2023-05-01T07:44:03.687Z,98112.22
2023-05-01T07:45:05.836Z,98111.41
2023-05-01T07:46:07.800Z,98117.09
2023-05-01T07:47:09.553Z,98110.50
2023-05-01T07:48:11.386Z,98116.72
2023-05-01T07:49:13.339Z,98110.13
2023-05-01T07:50:15.057Z,98114.16
2023-05-01T07:51:18.482Z,98122.06
2023-05-01T07:52:20.366Z,98106.75
2023-05-01T07:53:24.780Z,98122.28
2023-05-01T07:54:26.656Z,98113.50
2023-05-01T07:55:28.511Z,98110.44
2023-05-01T07:56:31.153Z,98114.50
2023-05-01T07:57:35.576Z,98117.88
2023-05-01T07:58:37.580Z,98094.28
2023-05-01T07:59:39.208Z,98123.53
2023-05-01T08:00:40.904Z,98104.94
2023-05-01T08:01:42.572Z,98102.19
2023-05-01T08:02:44.221Z,98092.59
2023-05-01T08:03:48.091Z,98087.38
2023-05-01T08:04:51.896Z,98095.38
2023-05-01T08:05:53.636Z,98095.84
2023-05-01T08:06:55.372Z,98095.44
2023-05-01T08:07:57.386Z,98090.72
2023-05-01T08:08:59.043Z,98096.31
2023-05-01T08:10:01.066Z,98088.75
2023-05-01T08:11:02.903Z,98072.59
2023-05-01T08:12:04.652Z,98079.13
2023-05-01T08:13:06.291Z,98100.25
2023-05-01T08:14:08.194Z,98077.09
2023-05-01T08:15:09.950Z,98077.25
2023-05-01T08:16:11.702Z,98086.81
2023-05-01T08:17:13.635Z,98081.09
2023-05-01T08:18:21.245Z,98080.19
2023-05-01T08:19:27.113Z,98071.75
2023-05-01T08:20:28.867Z,98096.63
2023-05-01T08:21:31.303Z,98092.66
2023-05-01T08:22:36.108Z,98093.53
2023-05-01T08:23:38.110Z,98093.00
2023-05-01T08:24:41.000Z,98074.09
2023-05-01T08:25:42.442Z,98085.41
2023-05-01T08:26:44.190Z,98080.56
2023-05-01T08:27:46.286Z,98076.22
2023-05-01T08:28:48.704Z,98089.19
2023-05-01T08:29:50.628Z,98089.97
2023-05-01T08:30:52.245Z,98089.72
2023-05-01T08:31:54.137Z,98080.38
2023-05-01T08:32:56.248Z,98085.47
2023-05-01T08:33:57.936Z,98091.78
2023-05-01T08:34:59.540Z,98054.56
2023-05-01T08:36:01.111Z,98086.25
2023-05-01T08:37:02.821Z,98089.16
2023-05-01T08:38:04.361Z,98084.94
2023-05-01T08:39:05.973Z,98092.88
2023-05-01T08:40:09.125Z,98082.22
2023-05-01T08:41:11.008Z,98083.44
2023-05-01T08:42:13.665Z,98083.00
2023-05-01T08:43:15.308Z,98086.22
2023-05-01T08:44:16.939Z,98089.09
2023-05-01T08:45:19.156Z,98085.19
2023-05-01T08:46:34.319Z,98085.34
2023-05-01T08:47:37.219Z,98073.47
2023-05-01T08:48:39.604Z,98084.66
2023-05-01T08:49:42.191Z,98073.03
2023-05-01T08:50:45.624Z,98071.78
2023-05-01T08:51:48.257Z,98078.78
2023-05-01T08:52:50.944Z,98064.22
2023-05-01T08:53:53.018Z,98076.84
2023-05-01T08:54:56.845Z,98072.72
2023-05-01T08:55:58.468Z,98084.00
2023-05-01T08:57:06.889Z,98065.97
2023-05-01T08:58:10.303Z,98075.00
2023-05-01T08:59:12.607Z,98067.50
2023-05-01T09:00:20.363Z,98065.91
2023-05-01T09:01:22.695Z,98072.34
2023-05-01T09:02:25.002Z,98073.72
2023-05-01T09:03:26.683Z,98064.78
2023-05-01T09:04:32.252Z,98073.22
2023-05-01T09:05:34.076Z,98077.59
2023-05-01T09:06:36.181Z,98072.81
2023-05-01T09:07:38.210Z,98070.38
2023-05-01T09:08:39.709Z,98076.47
2023-05-01T09:09:41.319Z,98074.06
2023-05-01T09:10:46.154Z,98074.22
2023-05-01T09:11:47.726Z,98072.59
2023-05-01T09:12:51.842Z,98080.19
2023-05-01T09:13:53.365Z,98079.06
2023-05-01T09:14:56.334Z,98079.75
2023-05-01T09:15:57.863Z,98082.44
2023-05-01T09:16:59.445Z,98067.84
2023-05-01T09:18:03.479Z,98073.16
2023-05-01T09:19:05.488Z,98085.06
2023-05-01T09:20:07.697Z,98079.47
2023-05-01T09:21:09.299Z,98058.78
2023-05-01T09:22:11.197Z,98083.22
2023-05-01T09:23:12.845Z,98076.56
2023-05-01T09:24:14.407Z,98087.75
2023-05-01T09:25:15.979Z,98084.31
2023-05-01T09:26:17.721Z,98081.63
2023-05-01T09:27:19.316Z,98090.28
2023-05-01T09:28:41.594Z,98084.41
2023-05-01T09:29:47.483Z,98073.13
2023-05-01T09:30:49.072Z,98087.09
2023-05-01T09:31:51.004Z,98080.59
2023-05-01T09:33:06.427Z,98089.94
2023-05-01T09:34:08.424Z,98083.94
2023-05-01T09:35:14.211Z,98081.81
2023-05-01T09:36:17.361Z,98082.13
2023-05-01T09:37:29.281Z,98072.22
2023-05-01T09:38:31.009Z,98073.41
2023-05-01T09:39:32.755Z,98061.78
2023-05-01T09:40:34.260Z,98065.41
2023-05-01T09:41:36.622Z,98080.00
2023-05-01T09:42:41.412Z,98074.63
2023-05-01T09:43:43.916Z,98069.94
2023-05-01T09:44:45.459Z,98072.69
2023-05-01T09:46:01.943Z,98061.31
2023-05-01T09:47:03.892Z,98059.00
2023-05-01T09:48:11.749Z,98063.63
2023-05-01T09:49:13.430Z,98075.81
2023-05-01T09:50:35.158Z,98081.91
2023-05-01T09:51:36.897Z,98080.56
2023-05-01T09:52:38.854Z,98068.19
2023-05-01T09:53:40.840Z,98066.59
2023-05-01T09:54:43.216Z,98072.94
2023-05-01T09:55:44.786Z,98076.69
2023-05-01T09:56:47.841Z,98072.34
2023-05-01T09:57:49.647Z,98074.69
2023-05-01T09:58:52.048Z,98078.41
2023-05-01T10:00:08.368Z,98068.91
2023-05-01T10:01:13.311Z,98069.09
2023-05-01T10:02:33.029Z,98082.97
2023-05-01T10:03:35.007Z,98065.81
2023-05-01T10:04:36.721Z,98075.25
2023-05-01T10:05:44.638Z,98067.84
2023-05-01T10:06:46.505Z,98069.97
2023-05-01T10:07:59.467Z,98077.72
2023-05-01T10:09:01.019Z,98073.28
2023-05-01T10:10:21.433Z,98083.03
2023-05-01T10:11:23.746Z,98073.13
2023-05-01T10:12:26.909Z,98075.84
2023-05-01T10:13:28.708Z,98070.09
2023-05-01T10:14:33.784Z,98078.06
2023-05-01T10:15:38.042Z,98063.28
2023-05-01T10:16:39.810Z,98061.41
2023-05-01T10:17:43.238Z,98071.31
2023-05-01T10:18:45.590Z,98072.09
2023-05-01T10:19:47.901Z,98072.59
2023-05-01T10:20:49.447Z,98073.13
2023-05-01T10:21:53.882Z,98070.91
2023-05-01T10:22:55.572Z,98071.56
2023-05-01T10:23:57.293Z,98065.63
2023-05-01T10:24:59.396Z,98072.78
2023-05-01T10:26:02.986Z,98078.78
2023-05-01T10:27:08.819Z,98074.81
2023-05-01T10:28:11.364Z,98071.31
2023-05-01T10:29:13.207Z,98063.59
2023-05-01T10:30:15.064Z,98075.00
2023-05-01T10:31:17.258Z,98060.31
2023-05-01T10:32:18.905Z,98062.44
2023-05-01T10:33:20.735Z,98062.06
2023-05-01T10:34:22.655Z,98061.47
2023-05-01T10:35:26.988Z,98071.69
2023-05-01T10:36:33.348Z,98068.38
2023-05-01T10:37:56.408Z,98065.69
2023-05-01T10:38:58.826Z,98079.50
2023-05-01T10:40:00.470Z,98074.59
2023-05-01T10:41:02.082Z,98053.47
2023-05-01T10:42:11.229Z,98077.66
2023-05-01T10:43:17.040Z,98073.22
2023-05-01T10:44:23.239Z,98071.09
2023-05-01T10:45:28.404Z,98056.34
2023-05-01T10:46:30.120Z,98068.38
2023-05-01T10:47:31.858Z,98070.59
2023-05-01T10:48:39.704Z,98077.13
2023-05-01T10:50:09.806Z,98076.25
2023-05-01T10:51:14.285Z,98073.31
2023-05-01T10:52:15.939Z,98072.53
2023-05-01T10:53:17.717Z,98064.97
2023-05-01T10:54:19.217Z,98063.88
2023-05-01T10:55:37.266Z,98077.31
2023-05-01T10:56:38.744Z,98082.16
2023-05-01T10:57:44.434Z,98070.47
2023-05-01T10:58:51.682Z,98080.22
2023-05-01T10:59:59.764Z,98073.53
2023-05-01T11:01:32.613Z,98077.50
2023-05-01T11:02:34.337Z,98082.41
2023-05-01T11:03:36.629Z,98087.31
2023-05-01T11:04:49.661Z,98081.31
2023-05-01T11:06:00.158Z,98094.97
2023-05-01T11:07:02.187Z,98100.97
2023-05-01T11:08:35.807Z,98097.16
2023-05-01T11:09:39.002Z,98096.84
2023-05-01T11:10:40.533Z,98101.50
2023-05-01T11:11:47.481Z,98094.16
2023-05-01T11:12:51.541Z,98082.16
2023-05-01T11:14:02.503Z,98100.03
2023-05-01T11:15:05.962Z,98097.28
2023-05-01T11:16:38.212Z,98097.75
2023-05-01T11:17:40.219Z,98104.97
2023-05-01T11:18:47.677Z,98099.53
2023-05-01T11:19:50.038Z,98110.16
2023-05-01T11:20:51.751Z,98112.19
2023-05-01T11:21:54.224Z,98104.59
2023-05-01T11:22:57.113Z,98104.28
2023-05-01T11:24:01.650Z,98111.97
2023-05-01T11:25:06.336Z,98098.03
2023-05-01T11:26:08.124Z,98098.06
2023-05-01T11:27:13.435Z,98107.28
2023-05-01T11:28:15.175Z,98095.28
2023-05-01T11:29:16.714Z,98114.97
2023-05-01T11:30:18.265Z,98102.16
2023-05-01T11:31:19.885Z,98114.44
2023-05-01T11:32:27.082Z,98109.25
2023-05-01T11:33:28.830Z,98111.97
2023-05-01T11:34:35.799Z,98116.56
2023-05-01T11:35:37.850Z,98118.19
2023-05-01T11:36:49.850Z,98100.16
2023-05-01T11:37:51.470Z,98113.88
2023-05-01T11:38:53.866Z,98102.97
2023-05-01T11:39:55.393Z,98114.47
2023-05-01T11:40:58.722Z,98103.59
2023-05-01T11:42:09.364Z,98117.78
2023-05-01T11:43:12.624Z,98113.41
2023-05-01T11:44:16.319Z,98111.78
2023-05-01T11:45:19.671Z,98114.47
2023-05-01T11:46:28.696Z,98120.50
2023-05-01T11:47:32.262Z,98113.78
2023-05-01T11:48:33.940Z,98107.75
2023-05-01T11:49:35.588Z,98110.19
2023-05-01T11:50:37.642Z,98097.88
2023-05-01T11:51:39.339Z,98104.97
2023-05-01T11:52:53.321Z,98103.81
2023-05-01T11:54:01.757Z,98111.97
2023-05-01T11:55:04.121Z,98107.03
2023-05-01T11:56:25.961Z,98112.19
2023-05-01T11:57:28.881Z,98102.94
2023-05-01T11:58:32.512Z,98111.34
2023-05-01T11:59:34.044Z,98112.47
2023-05-01T12:00:40.608Z,98119.28
2023-05-01T12:01:44.482Z,98119.78
2023-05-01T12:02:57.680Z,98112.41
2023-05-01T12:03:59.448Z,98117.31
2023-05-01T12:05:15.811Z,98111.59
2023-05-01T12:06:17.977Z,98124.97
2023-05-01T12:07:23.202Z,98115.47
2023-05-01T12:08:24.762Z,98115.50
2023-05-01T12:09:29.471Z,98105.97
2023-05-01T12:10:30.981Z,98120.38
2023-05-01T12:11:32.728Z,98116.06
2023-05-01T12:12:34.316Z,98114.31
2023-05-01T12:13:35.974Z,98121.97
2023-05-01T12:14:37.524Z,98129.91
2023-05-01T12:15:51.984Z,98124.72
2023-05-01T12:16:53.566Z,98118.22
2023-05-01T12:17:55.294Z,98126.38
2023-05-01T12:18:56.893Z,98121.75
2023-05-01T12:19:58.571Z,98120.94
2023-05-01T12:21:01.735Z,98108.97
2023-05-01T12:22:09.456Z,98119.91
2023-05-01T12:23:12.352Z,98113.63
2023-05-01T12:24:16.251Z,98119.72
2023-05-01T12:25:17.922Z,98124.88
2023-05-01T12:26:26.239Z,98117.44